Time;durP1;ratioP1;P1;durP2;ratioP2;P2;SDS_P1;SDS_P2;PMS_P1;PMS_P2;Temp;Humidity;BMP_temperature;BMP_pressure;BME280_temperature;BME280_humidity;BME280_pressure;Samples;Min_cycle;Max_cycle;Signal;HPM_P1;HPM_P2
2022/06/09 00:02:10;;;;;;;1.50;1.25;;;;;;;;;;4562739;28;20042;-70
2022/06/09 00:04:34;;;;;;;1.55;1.10;;;;;;;;;;4563196;28;20040;-70
2022/06/09 00:06:50;;;;;;;1.40;0.90;;;;;;;;;;4547259;28;20101;-69
2022/06/09 00:09:02;;;;;;;1.30;1.00;;;;;;;;;;4563680;27;20040;-70
2022/06/09 00:11:17;;;;;;;1.33;0.90;;;;;;;;;;4564803;28;20157;-69
2022/06/09 00:13:28;;;;;;;1.50;0.95;;;;;;;;;;4564347;28;20039;-69
2022/06/09 00:15:39;;;;;;;1.25;0.95;;;;;;;;;;4529893;28;20779;-69
2022/06/09 00:17:49;;;;;;;1.05;0.75;;;;;;;;;;4566887;28;20226;-69
2022/06/09 00:20:00;;;;;;;1.40;0.90;;;;;;;;;;4564294;28;20028;-69
2022/06/09 00:22:11;;;;;;;1.50;1.00;;;;;;;;;;4572529;28;20556;-68
2022/06/09 00:24:21;;;;;;;2.13;1.00;;;;;;;;;;4567400;28;20032;-69
2022/06/09 00:26:32;;;;;;;1.00;0.90;;;;;;;;;;4564600;27;20251;-69
2022/06/09 00:28:43;;;;;;;2.53;1.13;;;;;;;;;;4564365;28;20173;-69
2022/06/09 00:30:54;;;;;;;2.55;1.02;;;;;;;;;;4562611;28;20024;-69
2022/06/09 00:33:04;;;;;;;2.65;1.08;;;;;;;;;;4550305;28;20583;-69
2022/06/09 00:35:15;;;;;;;1.38;1.15;;;;;;;;;;4564121;28;20032;-69
2022/06/09 00:37:25;;;;;;;1.17;0.93;;;;;;;;;;4564980;28;20035;-70
2022/06/09 00:39:36;;;;;;;1.63;1.00;;;;;;;;;;4561398;28;23120;-69
2022/06/09 00:41:46;;;;;;;2.15;1.13;;;;;;;;;;4562151;28;20099;-69
2022/06/09 00:44:21;;;;;;;1.95;1.20;;;;;;;;;;4563805;27;20120;-69
2022/06/09 00:46:32;;;;;;;1.35;1.17;;;;;;;;;;4564938;27;20029;-68
2022/06/09 00:48:46;;;;;;;1.55;1.20;;;;;;;;;;4563395;28;20035;-70
2022/06/09 00:51:02;;;;;;;2.13;1.20;;;;;;;;;;4563358;28;20646;-70
2022/06/09 00:53:22;;;;;;;1.42;0.82;;;;;;;;;;4554784;28;20592;-69
2022/06/09 00:55:33;;;;;;;1.85;1.00;;;;;;;;;;4572730;27;20083;-68
2022/06/09 00:57:48;;;;;;;2.15;1.10;;;;;;;;;;4562754;28;20535;-69
2022/06/09 01:00:03;;;;;;;1.55;1.20;;;;;;;;;;4566387;28;20032;-69
2022/06/09 01:02:17;;;;;;;1.58;1.10;;;;;;;;;;4565057;28;20040;-69
2022/06/09 01:04:30;;;;;;;2.03;1.10;;;;;;;;;;4565783;28;20019;-69
2022/06/09 01:06:45;;;;;;;1.60;1.10;;;;;;;;;;4571665;28;20028;-69
2022/06/09 01:09:06;;;;;;;1.95;1.20;;;;;;;;;;4563794;28;20046;-68
2022/06/09 01:11:17;;;;;;;1.60;1.00;;;;;;;;;;4565982;28;20040;-68
2022/06/09 01:13:27;;;;;;;2.05;1.15;;;;;;;;;;4572675;28;20545;-69
2022/06/09 01:15:50;;;;;;;1.45;1.02;;;;;;;;;;4563163;27;20112;-68
2022/06/09 01:18:24;;;;;;;1.80;1.50;;;;;;;;;;4563019;28;20028;-69
2022/06/09 01:20:57;;;;;;;2.13;1.15;;;;;;;;;;4564676;28;20173;-69
2022/06/09 01:23:26;;;;;;;1.33;1.10;;;;;;;;;;4563228;28;20032;-69
2022/06/09 01:26:06;;;;;;;1.90;1.20;;;;;;;;;;4563188;28;20032;-69
2022/06/09 01:28:44;;;;;;;2.53;1.30;;;;;;;;;;4565082;28;20043;-69
2022/06/09 01:30:57;;;;;;;1.75;1.27;;;;;;;;;;4572088;28;20033;-69
2022/06/09 01:33:34;;;;;;;2.42;1.30;;;;;;;;;;4561749;28;20029;-69
2022/06/09 01:35:54;;;;;;;2.33;1.60;;;;;;;;;;4561885;28;20041;-69
2022/06/09 01:38:04;;;;;;;3.13;1.60;;;;;;;;;;4564138;28;20123;-68
2022/06/09 01:40:17;;;;;;;3.45;1.55;;;;;;;;;;4562132;28;20033;-69
2022/06/09 01:42:32;;;;;;;2.17;1.30;;;;;;;;;;4561338;28;20040;-68
2022/06/09 01:44:43;;;;;;;1.75;1.50;;;;;;;;;;4563603;28;20036;-68
2022/06/09 01:46:54;;;;;;;2.15;1.30;;;;;;;;;;4563140;28;20044;-68
2022/06/09 01:49:11;;;;;;;2.70;1.52;;;;;;;;;;4561757;28;20029;-68
2022/06/09 01:51:22;;;;;;;2.42;1.40;;;;;;;;;;4562219;28;20045;-68
2022/06/09 01:53:48;;;;;;;2.70;1.67;;;;;;;;;;4571569;28;20519;-69
2022/06/09 01:56:11;;;;;;;1.85;1.55;;;;;;;;;;4560992;28;20036;-68
2022/06/09 01:58:25;;;;;;;2.30;1.63;;;;;;;;;;4562781;28;20040;-69
2022/06/09 02:00:36;;;;;;;3.65;1.67;;;;;;;;;;4562927;28;20033;-68
2022/06/09 02:03:25;;;;;;;3.22;1.90;;;;;;;;;;4562858;28;20067;-68
2022/06/09 02:05:40;;;;;;;2.78;1.50;;;;;;;;;;4562296;28;21085;-68
2022/06/09 02:07:52;;;;;;;2.65;1.70;;;;;;;;;;4554174;28;20037;-69
2022/06/09 02:10:31;;;;;;;3.03;1.70;;;;;;;;;;4562939;28;20026;-68
2022/06/09 02:12:42;;;;;;;2.55;1.63;;;;;;;;;;4560020;28;20161;-68
2022/06/09 02:14:56;;;;;;;3.20;1.65;;;;;;;;;;4547416;28;20391;-68
2022/06/09 02:17:07;;;;;;;2.13;1.70;;;;;;;;;;4562790;28;20619;-68
2022/06/09 02:19:18;;;;;;;3.30;2.03;;;;;;;;;;4562106;28;20626;-68
2022/06/09 02:21:32;;;;;;;3.35;1.90;;;;;;;;;;4561160;28;20099;-68
2022/06/09 02:23:43;;;;;;;2.35;1.50;;;;;;;;;;4564866;28;20032;-68
2022/06/09 02:25:53;;;;;;;2.15;1.58;;;;;;;;;;4560724;28;20067;-68
2022/06/09 02:28:05;;;;;;;3.92;2.00;;;;;;;;;;4562588;28;20090;-68
2022/06/09 02:30:16;;;;;;;2.47;1.85;;;;;;;;;;4560999;28;20066;-68
2022/06/09 02:32:26;;;;;;;2.30;1.60;;;;;;;;;;4549087;28;20494;-69
2022/06/09 02:34:37;;;;;;;3.42;1.73;;;;;;;;;;4561854;28;20074;-68
2022/06/09 02:36:47;;;;;;;2.33;1.65;;;;;;;;;;4562446;28;20918;-68
2022/06/09 02:38:58;;;;;;;3.60;1.90;;;;;;;;;;4564540;28;20036;-69
2022/06/09 02:41:08;;;;;;;3.75;1.80;;;;;;;;;;4562487;27;20047;-69
2022/06/09 02:43:19;;;;;;;2.10;1.60;;;;;;;;;;4563385;28;20147;-69
2022/06/09 02:45:29;;;;;;;3.25;1.90;;;;;;;;;;4562508;28;20032;-69
2022/06/09 02:47:40;;;;;;;2.33;1.75;;;;;;;;;;4562416;28;20556;-69
2022/06/09 02:49:51;;;;;;;3.28;1.88;;;;;;;;;;4565225;27;20048;-68
2022/06/09 02:52:01;;;;;;;3.10;1.85;;;;;;;;;;4565682;27;20119;-69
2022/06/09 02:54:12;;;;;;;3.00;1.70;;;;;;;;;;4565785;27;20473;-69
2022/06/09 02:56:23;;;;;;;2.75;1.88;;;;;;;;;;4567932;28;20060;-69
2022/06/09 02:58:33;;;;;;;2.60;1.70;;;;;;;;;;4565645;27;20108;-69
2022/06/09 03:00:43;;;;;;;2.88;1.63;;;;;;;;;;4566053;28;20119;-69
2022/06/09 03:02:57;;;;;;;2.85;1.58;;;;;;;;;;4566289;27;20083;-68
2022/06/09 03:05:08;;;;;;;2.72;1.55;;;;;;;;;;4574264;28;20811;-68
2022/06/09 03:07:18;;;;;;;2.22;1.60;;;;;;;;;;4565236;28;20140;-68
2022/06/09 03:09:29;;;;;;;3.65;1.88;;;;;;;;;;4564925;28;20062;-68
2022/06/09 03:11:39;;;;;;;2.35;1.77;;;;;;;;;;4565894;28;20565;-68
2022/06/09 03:13:50;;;;;;;3.25;1.50;;;;;;;;;;4565715;28;20416;-68
2022/06/09 03:16:00;;;;;;;3.17;1.73;;;;;;;;;;4550266;28;20028;-68
2022/06/09 03:18:10;;;;;;;1.98;1.52;;;;;;;;;;4563981;28;20118;-68
2022/06/09 03:20:25;;;;;;;2.20;1.40;;;;;;;;;;4564453;28;20040;-67
2022/06/09 03:22:35;;;;;;;2.42;1.50;;;;;;;;;;4563951;27;20040;-68
2022/06/09 03:24:46;;;;;;;2.25;1.58;;;;;;;;;;4561898;28;20431;-68
2022/06/09 03:26:57;;;;;;;2.92;1.70;;;;;;;;;;4564017;28;20322;-68
2022/06/09 03:29:07;;;;;;;2.85;1.40;;;;;;;;;;4556848;28;20033;-68
2022/06/09 03:31:18;;;;;;;2.30;1.40;;;;;;;;;;4566426;28;20047;-68
2022/06/09 03:33:28;;;;;;;2.05;1.48;;;;;;;;;;4564635;28;20097;-68
2022/06/09 03:35:39;;;;;;;2.38;1.58;;;;;;;;;;4562151;28;20663;-68
2022/06/09 03:37:50;;;;;;;3.03;1.67;;;;;;;;;;4567862;28;20798;-68
2022/06/09 03:40:01;;;;;;;2.60;1.50;;;;;;;;;;4563837;28;20128;-68
2022/06/09 03:42:11;;;;;;;2.83;1.60;;;;;;;;;;4568097;28;20040;-68
2022/06/09 03:44:22;;;;;;;3.25;1.65;;;;;;;;;;4564173;27;20033;-68
2022/06/09 03:46:33;;;;;;;2.80;1.50;;;;;;;;;;4564137;28;20032;-68
2022/06/09 03:48:43;;;;;;;3.92;1.85;;;;;;;;;;4550064;28;20037;-68
2022/06/09 03:50:54;;;;;;;3.25;1.70;;;;;;;;;;4564269;28;20070;-68
2022/06/09 03:53:05;;;;;;;2.13;1.40;;;;;;;;;;4568676;28;20103;-68
2022/06/09 03:55:16;;;;;;;2.60;1.40;;;;;;;;;;4565242;27;20039;-68
2022/06/09 03:57:27;;;;;;;2.38;1.50;;;;;;;;;;4564909;28;20588;-68
2022/06/09 03:59:37;;;;;;;4.15;1.65;;;;;;;;;;4565255;28;20040;-68
2022/06/09 04:01:47;;;;;;;2.88;1.77;;;;;;;;;;4564601;28;20036;-68
2022/06/09 04:03:58;;;;;;;2.67;1.60;;;;;;;;;;4565404;27;20720;-68
2022/06/09 04:06:13;;;;;;;3.03;1.60;;;;;;;;;;4563768;28;20123;-68
2022/06/09 04:08:23;;;;;;;3.33;1.60;;;;;;;;;;4563655;28;21110;-69
2022/06/09 04:10:34;;;;;;;2.90;1.70;;;;;;;;;;4562963;27;20040;-68
2022/06/09 04:12:44;;;;;;;2.85;2.05;;;;;;;;;;4561266;28;20075;-68
2022/06/09 04:14:55;;;;;;;3.08;1.50;;;;;;;;;;4563390;28;20111;-72
2022/06/09 04:17:05;;;;;;;3.45;1.50;;;;;;;;;;4563423;28;20097;-70
2022/06/09 04:19:17;;;;;;;3.03;1.50;;;;;;;;;;4564483;27;20096;-70
2022/06/09 04:21:29;;;;;;;4.20;1.70;;;;;;;;;;4562003;28;20029;-70
2022/06/09 04:23:39;;;;;;;3.88;1.52;;;;;;;;;;4563339;28;20898;-68
2022/06/09 04:25:49;;;;;;;2.47;1.35;;;;;;;;;;4564787;27;20134;-68
2022/06/09 04:28:00;;;;;;;2.80;1.50;;;;;;;;;;4564430;28;20286;-68
2022/06/09 04:30:11;;;;;;;2.50;1.30;;;;;;;;;;4562243;28;20048;-68
2022/06/09 04:32:21;;;;;;;2.17;1.38;;;;;;;;;;4564417;28;20051;-68
2022/06/09 04:34:32;;;;;;;2.63;1.70;;;;;;;;;;4565018;28;20039;-68
2022/06/09 04:36:42;;;;;;;3.10;1.55;;;;;;;;;;4565763;28;20035;-68
2022/06/09 04:38:53;;;;;;;3.55;1.77;;;;;;;;;;4564955;28;20036;-68
2022/06/09 04:41:09;;;;;;;3.55;1.52;;;;;;;;;;4564113;28;20465;-68
2022/06/09 04:43:20;;;;;;;3.45;1.60;;;;;;;;;;4563769;28;20055;-68
2022/06/09 04:45:31;;;;;;;2.95;1.40;;;;;;;;;;4563724;28;20055;-68
2022/06/09 04:47:41;;;;;;;1.80;1.23;;;;;;;;;;4562065;28;20036;-68
2022/06/09 04:49:52;;;;;;;2.60;1.70;;;;;;;;;;4562616;28;20060;-68
2022/06/09 04:52:03;;;;;;;2.72;1.25;;;;;;;;;;4566310;28;20040;-69
2022/06/09 04:54:13;;;;;;;3.55;1.50;;;;;;;;;;4565276;27;20032;-69
2022/06/09 04:56:24;;;;;;;2.55;1.40;;;;;;;;;;4564198;28;20309;-69
2022/06/09 04:58:38;;;;;;;2.03;1.30;;;;;;;;;;4565971;28;20020;-69
2022/06/09 05:00:48;;;;;;;2.67;1.50;;;;;;;;;;4563436;28;20105;-69
2022/06/09 05:03:00;;;;;;;3.83;1.92;;;;;;;;;;4573402;28;20102;-68
2022/06/09 05:05:21;;;;;;;3.92;1.60;;;;;;;;;;4562814;28;20091;-69
2022/06/09 05:07:32;;;;;;;2.55;1.50;;;;;;;;;;4567184;28;20033;-69
2022/06/09 05:09:42;;;;;;;2.45;1.63;;;;;;;;;;4556296;28;20123;-69
2022/06/09 05:11:53;;;;;;;4.03;1.55;;;;;;;;;;4564480;28;20056;-69
2022/06/09 05:14:03;;;;;;;3.65;1.63;;;;;;;;;;4562308;27;20033;-69
2022/06/09 05:16:14;;;;;;;2.08;1.60;;;;;;;;;;4563551;27;20822;-69
2022/06/09 05:18:27;;;;;;;4.95;1.90;;;;;;;;;;4562141;28;20032;-69
2022/06/09 05:20:38;;;;;;;2.67;1.70;;;;;;;;;;4563887;28;20012;-69
2022/06/09 05:22:48;;;;;;;3.45;1.88;;;;;;;;;;4565428;28;20032;-69
2022/06/09 05:24:59;;;;;;;3.70;2.05;;;;;;;;;;4562006;27;20036;-69
2022/06/09 05:27:11;;;;;;;4.05;2.45;;;;;;;;;;4563041;28;20028;-69
2022/06/09 05:29:22;;;;;;;2.10;1.75;;;;;;;;;;4562230;28;20569;-69
2022/06/09 05:31:32;;;;;;;3.33;2.08;;;;;;;;;;4561341;27;20041;-69
2022/06/09 05:33:42;;;;;;;4.55;2.53;;;;;;;;;;4564184;27;20043;-69
2022/06/09 05:35:54;;;;;;;3.53;2.13;;;;;;;;;;4561489;27;20035;-69
2022/06/09 05:45:31;;;;;;;3.33;2.53;;;;;;;;;;4562816;28;20028;-70
2022/06/09 05:47:42;;;;;;;4.70;2.83;;;;;;;;;;4563235;27;20040;-70
2022/06/09 05:49:53;;;;;;;4.28;3.00;;;;;;;;;;4561588;28;20035;-70
2022/06/09 05:52:03;;;;;;;3.80;2.55;;;;;;;;;;4561672;28;20642;-70
2022/06/09 05:54:14;;;;;;;5.18;2.90;;;;;;;;;;4562156;28;20040;-70
2022/06/09 05:56:25;;;;;;;3.28;2.60;;;;;;;;;;4561852;27;20043;-70
2022/06/09 05:58:36;;;;;;;5.07;2.90;;;;;;;;;;4563381;28;20323;-70
2022/06/09 06:00:47;;;;;;;5.10;2.90;;;;;;;;;;4564793;28;21197;-70
2022/06/09 06:02:57;;;;;;;4.70;2.90;;;;;;;;;;4562110;27;20035;-70
2022/06/09 06:06:33;;;;;;;5.38;3.05;;;;;;;;;;4564628;28;20249;-70
2022/06/09 06:07:38;;;;;;;3.97;3.10;;;;;;;;;;4562492;28;20207;-70
2022/06/09 06:09:49;;;;;;;4.28;3.10;;;;;;;;;;4561582;28;20564;-70
2022/06/09 06:11:59;;;;;;;5.60;3.30;;;;;;;;;;4562034;28;20133;-70
2022/06/09 06:14:10;;;;;;;5.05;3.50;;;;;;;;;;4560537;28;20028;-70
2022/06/09 06:16:22;;;;;;;6.28;3.60;;;;;;;;;;4561886;28;20567;-69
2022/06/09 06:18:32;;;;;;;5.63;3.55;;;;;;;;;;4559710;28;20041;-70
2022/06/09 06:20:42;;;;;;;6.72;4.15;;;;;;;;;;4565228;27;20067;-70
2022/06/09 06:22:55;;;;;;;6.38;4.22;;;;;;;;;;4552903;28;20024;-70
2022/06/09 06:25:06;;;;;;;6.13;4.15;;;;;;;;;;4559638;28;20036;-70
2022/06/09 06:27:17;;;;;;;6.80;5.00;;;;;;;;;;4564962;28;20020;-69
2022/06/09 06:29:28;;;;;;;6.18;4.70;;;;;;;;;;4564584;28;20760;-69
2022/06/09 06:31:38;;;;;;;7.32;5.00;;;;;;;;;;4566576;28;20480;-70
2022/06/09 06:33:49;;;;;;;7.32;4.63;;;;;;;;;;4565721;28;20492;-69
2022/06/09 06:35:59;;;;;;;5.95;4.75;;;;;;;;;;4565429;28;20119;-70
2022/06/09 06:38:10;;;;;;;8.30;5.13;;;;;;;;;;4564284;27;20190;-70
2022/06/09 06:40:20;;;;;;;7.07;5.28;;;;;;;;;;4556105;28;20036;-70
2022/06/09 06:42:31;;;;;;;9.18;5.57;;;;;;;;;;4565051;28;20032;-70
2022/06/09 06:44:41;;;;;;;7.75;5.32;;;;;;;;;;4568769;28;20482;-69
2022/06/09 06:46:52;;;;;;;7.35;5.38;;;;;;;;;;4565759;27;21111;-70
2022/06/09 06:49:02;;;;;;;7.85;5.43;;;;;;;;;;4572731;28;20040;-70
2022/06/09 06:51:13;;;;;;;7.43;5.50;;;;;;;;;;4564085;28;20120;-69
2022/06/09 06:53:24;;;;;;;5.47;3.80;;;;;;;;;;4564395;27;20040;-70
2022/06/09 06:55:35;;;;;;;3.72;1.85;;;;;;;;;;4563305;28;20732;-69
2022/06/09 06:57:45;;;;;;;7.25;5.20;;;;;;;;;;4573332;28;20043;-70
2022/06/09 06:59:58;;;;;;;6.75;4.50;;;;;;;;;;4566560;28;20132;-69
2022/06/09 07:02:12;;;;;;;3.83;2.70;;;;;;;;;;4564643;28;20028;-69
2022/06/09 07:04:22;;;;;;;2.00;1.42;;;;;;;;;;4563171;28;21041;-70
2022/06/09 07:06:33;;;;;;;3.42;2.53;;;;;;;;;;4564346;28;20039;-69
2022/06/09 07:08:43;;;;;;;6.32;4.80;;;;;;;;;;4564258;28;20024;-72
2022/06/09 07:10:54;;;;;;;7.70;6.15;;;;;;;;;;4565575;28;20532;-71
2022/06/09 07:13:05;;;;;;;8.30;6.20;;;;;;;;;;4574202;28;20479;-72
2022/06/09 07:15:16;;;;;;;7.88;6.07;;;;;;;;;;4566450;28;20610;-71
2022/06/09 07:17:27;;;;;;;8.27;5.53;;;;;;;;;;4565402;28;20561;-71
2022/06/09 07:19:37;;;;;;;8.55;6.47;;;;;;;;;;4564516;28;20058;-71
2022/06/09 07:21:48;;;;;;;9.43;6.72;;;;;;;;;;4564943;27;20024;-68
2022/06/09 07:23:59;;;;;;;8.18;6.18;;;;;;;;;;4565805;28;20040;-67
2022/06/09 07:26:09;;;;;;;8.40;6.40;;;;;;;;;;4565903;28;20048;-68
2022/06/09 07:28:20;;;;;;;8.80;6.40;;;;;;;;;;4565503;27;20062;-68
2022/06/09 07:30:30;;;;;;;8.93;6.45;;;;;;;;;;4565826;28;20032;-73
2022/06/09 07:32:41;;;;;;;9.50;6.85;;;;;;;;;;4563628;28;20119;-73
2022/06/09 07:34:51;;;;;;;9.25;7.10;;;;;;;;;;4564620;28;20040;-73
2022/06/09 07:37:03;;;;;;;9.88;7.13;;;;;;;;;;4547027;28;20106;-71
2022/06/09 07:39:13;;;;;;;9.75;7.22;;;;;;;;;;4565275;28;20032;-73
2022/06/09 07:41:24;;;;;;;8.55;7.30;;;;;;;;;;4563319;28;20051;-72
2022/06/09 07:43:36;;;;;;;8.38;6.63;;;;;;;;;;4563024;28;20178;-71
2022/06/09 07:45:47;;;;;;;7.65;6.07;;;;;;;;;;4563875;28;20043;-70
2022/06/09 07:47:57;;;;;;;8.68;6.63;;;;;;;;;;4562743;28;20515;-70
2022/06/09 07:50:09;;;;;;;8.43;7.15;;;;;;;;;;4565176;28;20051;-70
2022/06/09 07:52:19;;;;;;;10.10;7.40;;;;;;;;;;4564277;28;20111;-70
2022/06/09 07:54:30;;;;;;;8.20;6.70;;;;;;;;;;4563374;28;20119;-70
2022/06/09 07:56:40;;;;;;;7.80;6.43;;;;;;;;;;4565493;27;20036;-70
2022/06/09 07:58:51;;;;;;;8.30;7.15;;;;;;;;;;4561726;28;20128;-70
2022/06/09 08:01:01;;;;;;;8.20;6.47;;;;;;;;;;4567120;28;20155;-70
2022/06/09 08:03:17;;;;;;;7.60;6.57;;;;;;;;;;4564726;28;20040;-70
2022/06/09 08:05:28;;;;;;;9.60;7.15;;;;;;;;;;4562919;28;21576;-70
2022/06/09 08:07:38;;;;;;;8.07;6.72;;;;;;;;;;4565789;27;20032;-69
2022/06/09 08:09:49;;;;;;;8.98;6.50;;;;;;;;;;4564370;28;20499;-70
2022/06/09 08:11:59;;;;;;;8.52;6.63;;;;;;;;;;4564403;28;20305;-71
2022/06/09 08:14:10;;;;;;;6.95;5.13;;;;;;;;;;4579901;27;20031;-71
2022/06/09 08:16:20;;;;;;;5.88;4.97;;;;;;;;;;4564882;27;20059;-71
2022/06/09 08:18:31;;;;;;;7.40;5.88;;;;;;;;;;4564467;28;20036;-71
2022/06/09 08:20:43;;;;;;;8.43;6.55;;;;;;;;;;4561072;28;20590;-68
2022/06/09 08:23:00;;;;;;;9.63;6.90;;;;;;;;;;4564643;27;20103;-70
2022/06/09 08:25:15;;;;;;;6.18;5.07;;;;;;;;;;4563629;28;20032;-70
2022/06/09 08:27:25;;;;;;;8.60;6.43;;;;;;;;;;4563760;28;20032;-70
2022/06/09 08:29:37;;;;;;;9.55;7.15;;;;;;;;;;4548714;28;20029;-69
2022/06/09 08:31:47;;;;;;;7.60;5.85;;;;;;;;;;4545587;28;20071;-70
2022/06/09 08:33:58;;;;;;;9.30;6.82;;;;;;;;;;4563511;28;20031;-69
2022/06/09 08:36:09;;;;;;;7.20;6.35;;;;;;;;;;4563573;27;20040;-70
2022/06/09 08:38:20;;;;;;;7.78;6.43;;;;;;;;;;4562265;28;20032;-69
2022/06/09 08:40:48;;;;;;;8.35;6.82;;;;;;;;;;4562841;28;20119;-70
2022/06/09 08:43:32;;;;;;;7.65;6.75;;;;;;;;;;4562794;27;20028;-70
2022/06/09 08:45:42;;;;;;;8.18;7.10;;;;;;;;;;4563021;28;20028;-70
2022/06/09 08:47:54;;;;;;;8.10;6.90;;;;;;;;;;4564848;28;20036;-70
2022/06/09 08:50:28;;;;;;;8.25;6.50;;;;;;;;;;4564601;27;20032;-70
2022/06/09 08:52:59;;;;;;;7.45;6.68;;;;;;;;;;4552204;28;20047;-70
2022/06/09 08:55:21;;;;;;;8.50;7.03;;;;;;;;;;4572252;27;20040;-69
2022/06/09 08:57:33;;;;;;;7.88;6.70;;;;;;;;;;4563698;28;20039;-70
2022/06/09 08:59:51;;;;;;;8.05;6.80;;;;;;;;;;4572399;28;20032;-70
2022/06/09 09:02:13;;;;;;;9.15;7.50;;;;;;;;;;4563710;27;20040;-69
2022/06/09 09:04:32;;;;;;;7.88;7.03;;;;;;;;;;4544690;28;20033;-69
2022/06/09 09:06:56;;;;;;;7.97;7.18;;;;;;;;;;4562606;28;20021;-69
2022/06/09 09:09:22;;;;;;;10.23;8.00;;;;;;;;;;4564031;28;20035;-70
2022/06/09 09:11:57;;;;;;;9.00;7.32;;;;;;;;;;4564314;28;20036;-70
2022/06/09 09:14:17;;;;;;;9.50;7.90;;;;;;;;;;4554791;28;20036;-70
2022/06/09 09:16:43;;;;;;;9.07;7.68;;;;;;;;;;4562160;28;20150;-70
2022/06/09 09:19:22;;;;;;;8.38;6.95;;;;;;;;;;4562501;28;20035;-71
2022/06/09 09:21:47;;;;;;;8.70;7.13;;;;;;;;;;4561623;28;20037;-69
2022/06/09 09:24:17;;;;;;;9.60;7.70;;;;;;;;;;4563225;28;20031;-70
2022/06/09 09:26:40;;;;;;;9.43;7.82;;;;;;;;;;4563565;28;20220;-70
2022/06/09 09:29:03;;;;;;;7.75;6.95;;;;;;;;;;4561234;28;20028;-69
2022/06/09 09:31:17;;;;;;;9.52;7.50;;;;;;;;;;4563611;28;20044;-70
2022/06/09 09:33:28;;;;;;;8.25;7.35;;;;;;;;;;4564577;28;20101;-70
2022/06/09 09:35:41;;;;;;;10.45;7.22;;;;;;;;;;4560625;28;20044;-70
2022/06/09 09:37:54;;;;;;;8.57;7.00;;;;;;;;;;4564761;28;20058;-70
2022/06/09 09:40:29;;;;;;;7.43;6.28;;;;;;;;;;4570858;28;20043;-69
2022/06/09 09:42:45;;;;;;;8.77;6.82;;;;;;;;;;4557256;28;21078;-69
2022/06/09 09:45:01;;;;;;;8.07;7.28;;;;;;;;;;4562916;28;20066;-70
2022/06/09 09:47:24;;;;;;;7.90;6.82;;;;;;;;;;4563543;28;20596;-70
2022/06/09 09:49:39;;;;;;;9.18;7.57;;;;;;;;;;4563323;28;20101;-70
2022/06/09 09:51:51;;;;;;;9.13;7.40;;;;;;;;;;4562526;27;20093;-70
2022/06/09 09:54:09;;;;;;;8.00;7.07;;;;;;;;;;4562498;27;20123;-70
2022/06/09 09:56:19;;;;;;;8.20;6.43;;;;;;;;;;4564588;28;20994;-70
2022/06/09 09:58:41;;;;;;;7.57;6.35;;;;;;;;;;4564921;28;20044;-70
2022/06/09 10:00:56;;;;;;;7.75;6.40;;;;;;;;;;4564094;28;20109;-69
2022/06/09 10:08:38;;;;;;;7.28;6.20;;;;;;;;;;4561190;28;20645;-70
2022/06/09 10:10:57;;;;;;;7.80;6.40;;;;;;;;;;4563139;28;20613;-70
2022/06/09 10:13:15;;;;;;;8.23;6.53;;;;;;;;;;4561382;28;20155;-70
2022/06/09 10:15:26;;;;;;;7.90;5.75;;;;;;;;;;4561258;28;20654;-70
2022/06/09 10:17:41;;;;;;;7.57;5.60;;;;;;;;;;4561088;28;20615;-70
2022/06/09 10:20:30;;;;;;;6.88;5.95;;;;;;;;;;4564749;27;20295;-71
2022/06/09 10:23:03;;;;;;;6.50;5.50;;;;;;;;;;4562750;28;20115;-71
2022/06/09 10:25:19;;;;;;;6.95;5.70;;;;;;;;;;4554796;28;20596;-70
2022/06/09 10:27:35;;;;;;;6.30;5.70;;;;;;;;;;4561935;27;20025;-70
2022/06/09 10:30:04;;;;;;;6.80;5.97;;;;;;;;;;4562119;27;20075;-70
2022/06/09 10:32:21;;;;;;;6.25;5.30;;;;;;;;;;4562789;28;20568;-70
2022/06/09 10:34:48;;;;;;;6.85;5.47;;;;;;;;;;4543441;28;20683;-69
2022/06/09 10:37:03;;;;;;;5.53;4.68;;;;;;;;;;4564947;28;20142;-70
2022/06/09 10:39:27;;;;;;;5.35;4.55;;;;;;;;;;4563788;28;20450;-70
2022/06/09 10:41:59;;;;;;;6.32;4.95;;;;;;;;;;4561532;28;20036;-70
2022/06/09 10:44:26;;;;;;;7.03;5.90;;;;;;;;;;4564221;28;20044;-70
2022/06/09 10:46:46;;;;;;;7.55;6.30;;;;;;;;;;4563100;28;20859;-70
2022/06/09 10:56:40;;;;;;;5.50;4.75;;;;;;;;;;4561382;28;20040;-70
2022/06/09 10:58:59;;;;;;;6.78;5.05;;;;;;;;;;4561675;28;20024;-70
2022/06/09 11:01:24;;;;;;;7.25;5.53;;;;;;;;;;4562615;28;20036;-70
2022/06/09 11:03:45;;;;;;;6.60;5.85;;;;;;;;;;4563481;28;20123;-70
2022/06/09 11:06:05;;;;;;;6.15;5.50;;;;;;;;;;4563214;28;20165;-70
2022/06/09 11:08:35;;;;;;;7.00;5.30;;;;;;;;;;4560424;28;20042;-70
2022/06/09 11:10:57;;;;;;;7.32;5.93;;;;;;;;;;4562291;28;20187;-70
2022/06/09 11:13:39;;;;;;;7.00;5.68;;;;;;;;;;4564280;28;20044;-70
2022/06/09 11:16:04;;;;;;;5.20;4.70;;;;;;;;;;4550409;28;20123;-70
2022/06/09 11:18:18;;;;;;;6.70;4.93;;;;;;;;;;4562709;28;20041;-70
2022/06/09 11:20:53;;;;;;;5.85;5.20;;;;;;;;;;4563413;28;20141;-70
2022/06/09 11:23:28;;;;;;;7.57;5.28;;;;;;;;;;4574028;28;20156;-71
2022/06/09 11:26:16;;;;;;;6.30;4.85;;;;;;;;;;4564381;28;20034;-70
2022/06/09 11:28:53;;;;;;;6.18;5.25;;;;;;;;;;4563887;28;20059;-70
2022/06/09 11:31:28;;;;;;;5.55;4.38;;;;;;;;;;4566967;27;20041;-70
2022/06/09 11:33:49;;;;;;;4.35;3.88;;;;;;;;;;4563146;28;20037;-70
2022/06/09 11:36:06;;;;;;;3.78;3.30;;;;;;;;;;4563661;28;20127;-70
2022/06/09 11:38:51;;;;;;;5.03;3.85;;;;;;;;;;4564253;28;21628;-70
2022/06/09 11:41:26;;;;;;;4.35;3.83;;;;;;;;;;4563169;28;20086;-70
2022/06/09 11:43:55;;;;;;;5.10;3.70;;;;;;;;;;4565021;28;20048;-70
2022/06/09 11:46:23;;;;;;;5.72;3.80;;;;;;;;;;4565350;27;20660;-70
2022/06/09 11:48:39;;;;;;;3.58;3.13;;;;;;;;;;4556463;28;20087;-70
2022/06/09 11:50:50;;;;;;;4.15;3.20;;;;;;;;;;4564440;28;20047;-70
2022/06/09 11:53:01;;;;;;;5.60;3.90;;;;;;;;;;4566087;28;20752;-70
2022/06/09 11:58:00;;;;;;;;;;;;;;;;;;4564989;28;20059;-70
2022/06/09 12:00:20;;;;;;;4.75;4.05;;;;;;;;;;4563951;28;19923;-69
2022/06/09 12:02:36;;;;;;;4.82;3.58;;;;;;;;;;4564242;28;20028;-70
2022/06/09 12:05:00;;;;;;;2.17;1.48;;;;;;;;;;4564441;28;20029;-70
2022/06/09 12:07:23;;;;;;;1.38;1.20;;;;;;;;;;4561986;28;20119;-70
2022/06/09 12:10:04;;;;;;;2.58;1.23;;;;;;;;;;4572685;28;20028;-70
2022/06/09 12:12:37;;;;;;;2.70;2.30;;;;;;;;;;4566260;28;20051;-70
2022/06/09 12:14:47;;;;;;;3.42;2.40;;;;;;;;;;4564906;28;20035;-68
2022/06/09 12:17:13;;;;;;;1.70;1.48;;;;;;;;;;4563207;28;20048;-68
2022/06/09 12:19:26;;;;;;;2.10;1.50;;;;;;;;;;4564504;28;20761;-68
2022/06/09 12:21:37;;;;;;;1.70;1.42;;;;;;;;;;4568784;27;20114;-68
2022/06/09 12:23:51;;;;;;;3.20;1.33;;;;;;;;;;4561700;28;20071;-68
2022/06/09 12:26:11;;;;;;;1.85;1.52;;;;;;;;;;4563590;27;20136;-68
2022/06/09 12:28:50;;;;;;;1.90;1.70;;;;;;;;;;4565704;27;20123;-69
2022/06/09 12:31:26;;;;;;;;;;;;;;;;;;4563557;28;20098;-68
2022/06/09 12:33:37;;;;;;;2.97;2.20;;;;;;;;;;4565221;28;19963;-67
2022/06/09 12:35:54;;;;;;;3.25;2.25;;;;;;;;;;4562990;28;20115;-68
2022/06/09 12:38:06;;;;;;;;;;;;;;;;;;4564638;28;20036;-68
2022/06/09 12:40:20;;;;;;;2.38;1.30;;;;;;;;;;4547218;28;19912;-68
2022/06/09 12:42:47;;;;;;;1.30;1.00;;;;;;;;;;4566541;28;21303;-68
2022/06/09 12:45:13;;;;;;;1.98;1.35;;;;;;;;;;4567216;28;20167;-68
2022/06/09 12:47:25;;;;;;;2.55;0.90;;;;;;;;;;4564402;28;20036;-68
2022/06/09 12:49:37;;;;;;;1.45;1.00;;;;;;;;;;4563130;28;20519;-68
2022/06/09 12:51:47;;;;;;;1.20;1.10;;;;;;;;;;4562423;27;20598;-68
2022/06/09 12:53:58;;;;;;;1.38;1.08;;;;;;;;;;4565361;28;20033;-68
2022/06/09 12:56:45;;;;;;;2.30;1.30;;;;;;;;;;4564122;28;20738;-68
2022/06/09 12:58:56;;;;;;;1.95;1.20;;;;;;;;;;4565453;28;20484;-68
2022/06/09 13:01:15;;;;;;;1.92;1.20;;;;;;;;;;4564995;28;20032;-68
2022/06/09 13:03:33;;;;;;;1.25;1.10;;;;;;;;;;4564636;28;20836;-68
2022/06/09 13:05:43;;;;;;;1.88;1.02;;;;;;;;;;4563374;28;20036;-68
2022/06/09 13:07:58;;;;;;;1.60;1.15;;;;;;;;;;4564762;27;20063;-68
2022/06/09 13:10:28;;;;;;;1.60;1.10;;;;;;;;;;4572733;28;20028;-68
2022/06/09 13:12:51;;;;;;;0.95;0.70;;;;;;;;;;4562743;28;20041;-68
2022/06/09 13:15:04;;;;;;;0.82;0.60;;;;;;;;;;4563458;28;20131;-68
2022/06/09 13:17:22;;;;;;;1.00;0.60;;;;;;;;;;4562832;28;20036;-68
2022/06/09 13:19:34;;;;;;;1.10;0.65;;;;;;;;;;4566181;28;20032;-68
2022/06/09 13:21:45;;;;;;;0.85;0.65;;;;;;;;;;4564558;28;20024;-68
2022/06/09 13:23:59;;;;;;;0.60;0.57;;;;;;;;;;4566840;28;20032;-69
2022/06/09 13:26:14;;;;;;;0.95;0.60;;;;;;;;;;4566761;28;20041;-68
2022/06/09 13:28:30;;;;;;;0.80;0.70;;;;;;;;;;4563605;28;20024;-68
2022/06/09 13:31:01;;;;;;;0.95;0.73;;;;;;;;;;4562688;28;20610;-68
2022/06/09 13:33:25;;;;;;;1.45;0.65;;;;;;;;;;4565550;28;20044;-68
2022/06/09 13:35:41;;;;;;;1.00;0.90;;;;;;;;;;4563036;27;20546;-68
2022/06/09 13:38:26;;;;;;;1.15;0.85;;;;;;;;;;4563894;27;20032;-68
2022/06/09 13:40:50;;;;;;;1.73;1.00;;;;;;;;;;4565113;28;20564;-68
2022/06/09 13:43:01;;;;;;;1.08;0.80;;;;;;;;;;4565406;27;20039;-68
2022/06/09 13:45:19;;;;;;;1.13;0.80;;;;;;;;;;4564954;27;20130;-68
2022/06/09 13:47:35;;;;;;;1.05;0.80;;;;;;;;;;4565070;28;20047;-69
2022/06/09 13:50:12;;;;;;;1.92;1.10;;;;;;;;;;4562712;28;20630;-68
2022/06/09 13:52:35;;;;;;;1.30;1.20;;;;;;;;;;4562449;28;20810;-68
2022/06/09 13:54:51;;;;;;;1.63;0.90;;;;;;;;;;4561583;28;20417;-68
2022/06/09 13:57:01;;;;;;;1.30;0.98;;;;;;;;;;4561957;28;20082;-69
2022/06/09 13:59:12;;;;;;;1.67;1.10;;;;;;;;;;4561628;28;20539;-68